Farmersburg, Iowa
Current Conditions -  °F | °C
As of 2:35 PM on Wednesday 26 Nov 2014 (Local Time) from KPDC Reporting Station
Overcast Overcast  
Wind Chill: 22°   Ceiling: 1400
Heat Index: 27°   Visibility: 7mi
Dew Point: 21°   Wind: 5mph
Humidity: 78%   Direction: 30°NNE
Pressure: 30.14"   Gusts: NA
Location:  42.96°N, 91.37°W
Report Text: KPDC 262035Z AUTO 03004KT 7SM OVC014 M03/M06 A3014 RMK AO2 T10281062
Loading
Personal Weather Stations






























Interactive Weather Map New forecast layout! Learn more

10-Day Weather Forecast

Advertisements
Track Severe Weather on mobile